Time;durP1;ratioP1;P1;durP2;ratioP2;P2;SDS_P1;SDS_P2;PMS_P1;PMS_P2;Temp;Humidity;BMP_temperature;BMP_pressure;BME280_temperature;BME280_humidity;BME280_pressure;Samples;Min_cycle;Max_cycle;Signal;HPM_P1;HPM_P2
2022/07/18 00:00:14;;;;;;;7.47;2.83;;;21.10;51.30;;;;;;5015453;28;20030;-65
2022/07/18 00:02:40;;;;;;;7.22;3.13;;;21.00;51.30;;;;;;5015967;28;20033;-65
2022/07/18 00:05:06;;;;;;;8.48;3.35;;;21.00;51.40;;;;;;5016830;28;20030;-65
2022/07/18 00:07:32;;;;;;;7.43;3.33;;;21.00;51.50;;;;;;5015861;28;20149;-65
2022/07/18 00:09:58;;;;;;;6.97;3.10;;;21.00;51.60;;;;;;5015608;28;20224;-65
2022/07/18 00:12:23;;;;;;;6.97;2.95;;;20.90;51.60;;;;;;5015404;28;20026;-65
2022/07/18 00:14:49;;;;;;;9.23;3.03;;;20.90;51.60;;;;;;5015840;28;20018;-65
2022/07/18 00:17:15;;;;;;;7.35;3.30;;;20.90;51.60;;;;;;5012012;28;20121;-65
2022/07/18 00:19:40;;;;;;;7.55;3.30;;;20.90;51.60;;;;;;5016310;28;20030;-65
2022/07/18 00:22:06;;;;;;;6.05;2.83;;;20.80;51.70;;;;;;5015037;28;20362;-65
2022/07/18 00:24:32;;;;;;;5.38;2.72;;;20.80;51.80;;;;;;5016502;28;20363;-65
2022/07/18 00:26:59;;;;;;;8.45;2.90;;;20.80;51.90;;;;;;5010710;28;21259;-65
2022/07/18 00:29:25;;;;;;;7.65;3.40;;;20.80;52.00;;;;;;5015345;28;20018;-65
2022/07/18 00:31:51;;;;;;;6.47;3.05;;;20.70;52.00;;;;;;5014238;28;20408;-65
2022/07/18 00:34:16;;;;;;;8.10;3.50;;;20.70;52.00;;;;;;5015442;28;20018;-65
2022/07/18 00:36:42;;;;;;;6.35;2.92;;;20.70;52.00;;;;;;5015109;28;20026;-65
2022/07/18 00:39:08;;;;;;;6.75;3.22;;;20.70;52.00;;;;;;5015987;28;20336;-65
2022/07/18 00:41:33;;;;;;;6.82;3.10;;;20.70;52.10;;;;;;5014863;28;20033;-65
2022/07/18 00:43:59;;;;;;;6.95;3.15;;;20.60;52.20;;;;;;5013655;28;20037;-65
2022/07/18 00:46:26;;;;;;;5.85;2.72;;;20.60;52.20;;;;;;5015354;28;20311;-65
2022/07/18 00:48:52;;;;;;;7.63;3.03;;;20.60;52.30;;;;;;5015343;28;20065;-65
2022/07/18 00:51:19;;;;;;;7.93;3.28;;;20.50;52.30;;;;;;5016441;28;20058;-65
2022/07/18 00:53:45;;;;;;;7.10;3.08;;;20.50;52.40;;;;;;5014341;28;20025;-65
2022/07/18 00:56:11;;;;;;;7.55;3.33;;;20.50;52.50;;;;;;5015925;28;20029;-65
2022/07/18 00:58:37;;;;;;;7.18;3.10;;;20.40;52.40;;;;;;5014172;28;20108;-65
2022/07/18 01:03:47;;;;;;;6.13;2.72;;;20.40;52.40;;;;;;5014895;28;20332;-65
2022/07/18 01:06:13;;;;;;;6.75;2.83;;;20.40;52.40;;;;;;5015435;28;20029;-65
2022/07/18 01:08:42;;;;;;;5.97;3.05;;;20.40;52.50;;;;;;5014430;28;20037;-65
2022/07/18 01:11:08;;;;;;;7.28;2.60;;;20.40;52.50;;;;;;5015225;28;20030;-65
2022/07/18 01:13:33;;;;;;;6.80;2.75;;;20.40;52.60;;;;;;5012799;28;20128;-65
2022/07/18 01:16:00;;;;;;;7.25;3.03;;;20.30;52.70;;;;;;5015283;28;20347;-65
2022/07/18 01:18:25;;;;;;;6.28;3.05;;;20.30;52.50;;;;;;5014545;28;20120;-65
2022/07/18 01:20:51;;;;;;;5.78;2.72;;;20.30;52.50;;;;;;5014860;28;20408;-65
2022/07/18 01:23:17;;;;;;;7.32;2.95;;;20.30;52.50;;;;;;5014311;28;20045;-65
2022/07/18 01:25:43;;;;;;;5.68;2.45;;;20.30;52.60;;;;;;5015139;28;20116;-66
2022/07/18 01:28:09;;;;;;;7.03;2.70;;;20.20;52.60;;;;;;5011844;28;20116;-65
2022/07/18 01:30:35;;;;;;;6.00;2.80;;;20.20;52.60;;;;;;5014991;28;20443;-65
2022/07/18 01:33:02;;;;;;;6.38;2.90;;;20.20;52.60;;;;;;5007362;28;20065;-65
2022/07/18 01:35:29;;;;;;;7.32;3.00;;;20.20;52.50;;;;;;5014571;28;20018;-65
2022/07/18 01:37:59;;;;;;;7.90;2.90;;;20.20;52.50;;;;;;5013416;28;20037;-65
2022/07/18 01:40:26;;;;;;;7.43;3.10;;;20.20;52.60;;;;;;5001398;28;20025;-65
2022/07/18 01:42:52;;;;;;;7.90;3.15;;;20.10;52.60;;;;;;5006089;28;20062;-65
2022/07/18 01:45:17;;;;;;;6.30;2.70;;;20.10;52.60;;;;;;5014071;28;20034;-65
2022/07/18 01:47:43;;;;;;;7.13;2.60;;;20.10;52.60;;;;;;5014158;28;20123;-65
2022/07/18 01:50:11;;;;;;;7.38;3.15;;;20.10;52.60;;;;;;5013851;28;20037;-65
2022/07/18 01:52:37;;;;;;;7.45;3.08;;;20.10;52.60;;;;;;5006833;28;20045;-65
2022/07/18 01:55:05;;;;;;;7.95;2.63;;;20.10;52.60;;;;;;5010674;28;20069;-65
2022/07/18 01:57:32;;;;;;;6.82;2.78;;;20.00;52.60;;;;;;5013539;28;20042;-65
2022/07/18 01:59:57;;;;;;;5.75;2.72;;;20.00;52.70;;;;;;5014593;28;20033;-65
2022/07/18 02:02:23;;;;;;;6.65;2.60;;;20.00;52.70;;;;;;5014693;28;20363;-65
2022/07/18 02:05:01;;;;;;;6.50;2.90;;;20.00;52.70;;;;;;5014217;28;20037;-65
2022/07/18 02:07:28;;;;;;;8.23;2.75;;;20.00;52.80;;;;;;5013261;28;20367;-65
2022/07/18 02:09:55;;;;;;;7.30;3.03;;;19.90;52.80;;;;;;5012939;28;20056;-65
2022/07/18 02:12:21;;;;;;;7.90;3.10;;;19.90;52.80;;;;;;5013483;28;20457;-65
2022/07/18 02:14:46;;;;;;;7.05;3.08;;;19.90;52.80;;;;;;5016717;28;20026;-65
2022/07/18 02:17:12;;;;;;;6.80;3.35;;;19.90;52.80;;;;;;5013767;28;20049;-65
2022/07/18 02:19:37;;;;;;;6.65;2.75;;;19.90;52.80;;;;;;5013448;28;20033;-65
2022/07/18 02:22:03;;;;;;;7.47;2.90;;;19.80;52.80;;;;;;5013444;28;20034;-65
2022/07/18 02:24:29;;;;;;;7.70;3.00;;;19.80;52.90;;;;;;5012621;28;20025;-65
2022/07/18 02:26:54;;;;;;;7.13;3.03;;;19.80;52.90;;;;;;5013663;28;20026;-65
2022/07/18 02:29:20;;;;;;;6.18;2.80;;;19.80;53.00;;;;;;5013915;28;20028;-65
2022/07/18 02:31:46;;;;;;;7.78;3.22;;;19.70;52.90;;;;;;5014496;28;20026;-65
2022/07/18 02:34:12;;;;;;;7.18;3.35;;;19.70;52.90;;;;;;5013964;28;20033;-65
2022/07/18 02:36:38;;;;;;;9.88;3.33;;;19.70;53.00;;;;;;5013677;28;20088;-65
2022/07/18 02:39:05;;;;;;;8.82;3.30;;;19.70;53.10;;;;;;5016478;28;20025;-65
2022/07/18 02:41:31;;;;;;;6.70;3.25;;;19.70;53.20;;;;;;5013620;28;20033;-65
2022/07/18 02:43:56;;;;;;;7.47;3.28;;;19.70;53.20;;;;;;5013540;28;20033;-65
2022/07/18 02:46:22;;;;;;;8.38;3.45;;;19.60;53.30;;;;;;5014523;28;20048;-65
2022/07/18 02:48:48;;;;;;;7.55;3.00;;;19.70;53.40;;;;;;5013216;28;20030;-65
2022/07/18 02:51:13;;;;;;;6.18;2.92;;;19.60;53.40;;;;;;5012664;28;20025;-65
2022/07/18 02:53:39;;;;;;;5.90;2.70;;;19.60;53.40;;;;;;5014188;28;20029;-65
2022/07/18 02:56:04;;;;;;;7.45;3.25;;;19.60;53.50;;;;;;5013298;28;20017;-65
2022/07/18 02:58:32;;;;;;;6.30;2.92;;;19.60;53.50;;;;;;5013808;28;20105;-65
2022/07/18 03:00:58;;;;;;;6.50;3.03;;;19.50;53.50;;;;;;5013761;28;20029;-65
2022/07/18 03:03:23;;;;;;;6.10;2.95;;;19.50;53.60;;;;;;5013981;28;20030;-65
2022/07/18 03:05:49;;;;;;;7.35;3.03;;;19.50;53.70;;;;;;5013610;28;20045;-65
2022/07/18 03:08:15;;;;;;;7.68;3.38;;;19.50;53.70;;;;;;5012517;28;20049;-65
2022/07/18 03:10:40;;;;;;;8.25;3.25;;;19.50;53.80;;;;;;5013035;28;20103;-65
2022/07/18 03:13:06;;;;;;;9.20;3.40;;;19.50;53.80;;;;;;5014085;28;20034;-65
2022/07/18 03:15:31;;;;;;;7.72;3.50;;;19.50;53.90;;;;;;5013696;28;20451;-65
2022/07/18 03:17:57;;;;;;;8.45;3.47;;;19.40;53.80;;;;;;5013109;28;20051;-65
2022/07/18 03:20:23;;;;;;;7.25;2.97;;;19.40;53.90;;;;;;5014765;28;20123;-65
2022/07/18 03:22:48;;;;;;;7.35;3.17;;;19.40;54.00;;;;;;5012642;28;20030;-65
2022/07/18 03:25:15;;;;;;;6.55;3.05;;;19.40;54.00;;;;;;5015581;28;20477;-65
2022/07/18 03:27:40;;;;;;;7.45;3.20;;;19.40;54.10;;;;;;5013159;28;20109;-65
2022/07/18 03:30:07;;;;;;;8.00;3.67;;;19.30;54.10;;;;;;5013538;28;20026;-65
2022/07/18 03:32:32;;;;;;;7.90;3.30;;;19.30;54.10;;;;;;5013934;28;20026;-65
2022/07/18 03:34:58;;;;;;;7.65;3.40;;;19.30;54.20;;;;;;5015223;28;20040;-65
2022/07/18 03:37:23;;;;;;;7.75;3.25;;;19.30;54.20;;;;;;5016101;28;20037;-65
2022/07/18 03:39:49;;;;;;;7.68;3.30;;;19.30;54.30;;;;;;5016389;28;20042;-65
2022/07/18 03:42:15;;;;;;;7.65;3.20;;;19.30;54.30;;;;;;5016233;28;20041;-65
2022/07/18 03:44:40;;;;;;;7.00;3.08;;;19.30;54.30;;;;;;5016845;28;20355;-65
2022/07/18 03:47:06;;;;;;;5.90;2.75;;;19.30;54.40;;;;;;5018673;28;20439;-65
2022/07/18 03:49:32;;;;;;;6.75;2.80;;;19.30;54.40;;;;;;5017563;28;20112;-65
2022/07/18 03:51:57;;;;;;;6.28;2.83;;;19.20;54.40;;;;;;5016492;28;20026;-65
2022/07/18 03:54:23;;;;;;;7.70;3.17;;;19.30;54.50;;;;;;5015320;28;20022;-65
2022/07/18 03:56:50;;;;;;;6.72;2.90;;;19.20;54.50;;;;;;5014724;28;20040;-65
2022/07/18 03:59:15;;;;;;;9.85;4.28;;;19.30;54.60;;;;;;5017194;28;20073;-65
2022/07/18 04:01:41;;;;;;;7.55;3.22;;;19.20;54.70;;;;;;5016458;28;20107;-65
2022/07/18 04:04:06;;;;;;;6.85;3.30;;;19.20;54.70;;;;;;5015509;28;20032;-65
2022/07/18 04:06:32;;;;;;;6.13;2.90;;;19.20;54.80;;;;;;5015657;28;20052;-65
2022/07/18 04:08:58;;;;;;;7.65;3.17;;;19.20;54.90;;;;;;5018419;28;20022;-65
2022/07/18 04:11:23;;;;;;;8.25;2.92;;;19.20;54.90;;;;;;5018908;28;20022;-65
2022/07/18 04:13:53;;;;;;;6.85;3.30;;;19.20;55.00;;;;;;5020157;28;20041;-65
2022/07/18 04:16:19;;;;;;;7.50;2.90;;;19.20;55.10;;;;;;5014242;28;20026;-65
2022/07/18 04:18:46;;;;;;;7.30;3.22;;;19.20;55.10;;;;;;5016418;28;20057;-64
2022/07/18 04:21:12;;;;;;;7.28;3.03;;;19.20;55.20;;;;;;5015573;28;20022;-65
2022/07/18 04:23:38;;;;;;;9.38;4.00;;;19.20;55.30;;;;;;5015714;28;20518;-64
2022/07/18 04:26:04;;;;;;;7.00;3.20;;;19.20;55.40;;;;;;5015664;28;20478;-65
2022/07/18 04:28:30;;;;;;;6.70;3.33;;;19.20;55.40;;;;;;5016837;28;20022;-64
2022/07/18 04:30:56;;;;;;;7.97;3.67;;;19.20;55.70;;;;;;5027971;28;20099;-64
2022/07/18 04:33:21;;;;;;;7.03;3.35;;;19.30;55.70;;;;;;5014859;28;20097;-64
2022/07/18 04:35:47;;;;;;;8.60;3.25;;;19.30;55.80;;;;;;5014252;28;20119;-64
2022/07/18 04:38:13;;;;;;;7.93;3.50;;;19.30;55.90;;;;;;5015604;28;20036;-65
2022/07/18 04:40:39;;;;;;;7.40;3.28;;;19.30;55.80;;;;;;5014601;28;20029;-64
2022/07/18 04:43:06;;;;;;;6.50;3.17;;;19.40;56.00;;;;;;5012681;28;20041;-64
2022/07/18 04:45:31;;;;;;;7.30;3.03;;;19.40;56.00;;;;;;5015163;28;20053;-64
2022/07/18 04:47:58;;;;;;;7.18;3.03;;;19.40;56.00;;;;;;5014159;28;20061;-64
2022/07/18 04:50:24;;;;;;;7.15;3.00;;;19.40;56.20;;;;;;5014890;28;20175;-64
2022/07/18 04:52:51;;;;;;;7.20;3.20;;;19.40;56.30;;;;;;5015802;28;20466;-64
2022/07/18 04:55:18;;;;;;;6.78;3.40;;;19.40;56.20;;;;;;5015520;28;20033;-64
2022/07/18 04:57:44;;;;;;;7.68;3.70;;;19.40;56.10;;;;;;5016979;28;20363;-64
2022/07/18 05:00:12;;;;;;;9.00;3.47;;;19.50;56.30;;;;;;5015754;28;20059;-64
2022/07/18 05:02:46;;;;;;;7.57;3.67;;;19.50;56.40;;;;;;5015322;28;20046;-64
2022/07/18 05:05:13;;;;;;;7.65;3.63;;;19.50;56.50;;;;;;5016830;28;20414;-64
2022/07/18 05:07:41;;;;;;;8.02;3.25;;;19.60;56.30;;;;;;5017181;28;20041;-64
2022/07/18 05:10:08;;;;;;;7.22;3.22;;;19.60;56.20;;;;;;5013917;28;20137;-64
2022/07/18 05:12:38;;;;;;;7.88;4.07;;;19.70;56.20;;;;;;5015933;28;20364;-64
2022/07/18 05:15:10;;;;;;;9.35;4.05;;;19.80;56.00;;;;;;5016035;28;20030;-64
2022/07/18 05:17:36;;;;;;;10.73;5.65;;;19.80;55.80;;;;;;5016509;28;20040;-64
2022/07/18 05:20:04;;;;;;;10.18;5.05;;;19.90;56.50;;;;;;5018696;28;20026;-64
2022/07/18 05:22:29;;;;;;;8.18;4.15;;;20.00;55.50;;;;;;5014309;28;20108;-64
2022/07/18 05:24:55;;;;;;;7.90;3.90;;;20.10;55.20;;;;;;5014976;28;20113;-64
2022/07/18 05:27:20;;;;;;;8.55;3.88;;;20.20;55.20;;;;;;5015871;28;20040;-65
2022/07/18 05:29:46;;;;;;;12.60;4.15;;;20.30;55.30;;;;;;5014978;28;20025;-65
2022/07/18 05:32:12;;;;;;;10.55;4.10;;;20.40;55.20;;;;;;5014751;28;20018;-65
2022/07/18 05:34:37;;;;;;;8.18;3.63;;;20.50;54.90;;;;;;5011334;28;20025;-64
2022/07/18 05:37:03;;;;;;;8.07;4.15;;;20.60;54.70;;;;;;5018623;28;20037;-64
2022/07/18 05:39:29;;;;;;;7.75;4.10;;;20.60;54.70;;;;;;5015061;28;20417;-65
2022/07/18 05:41:54;;;;;;;7.45;3.22;;;20.70;54.80;;;;;;5014904;28;20117;-65
2022/07/18 05:44:20;;;;;;;8.75;4.22;;;20.70;55.00;;;;;;5014405;28;20113;-65
2022/07/18 05:46:49;;;;;;;12.02;3.75;;;20.70;55.10;;;;;;5015364;28;20038;-64
2022/07/18 05:49:16;;;;;;;8.18;3.30;;;20.70;55.30;;;;;;5015681;28;20431;-64
2022/07/18 05:51:42;;;;;;;7.60;3.95;;;20.70;55.40;;;;;;5011962;28;20030;-65
2022/07/18 05:54:08;;;;;;;9.07;4.20;;;20.70;55.20;;;;;;5015191;28;20369;-65
2022/07/18 05:56:34;;;;;;;8.85;4.05;;;20.60;55.20;;;;;;5013225;28;20088;-64
2022/07/18 05:58:59;;;;;;;8.57;3.58;;;20.70;55.60;;;;;;5013737;28;20037;-64
2022/07/18 06:01:25;;;;;;;7.65;3.72;;;20.70;55.50;;;;;;5015604;28;20033;-65
2022/07/18 06:03:51;;;;;;;7.40;3.83;;;20.90;55.50;;;;;;5013722;28;20053;-65
2022/07/18 06:06:18;;;;;;;7.47;3.97;;;21.00;55.30;;;;;;5016056;28;20025;-66
2022/07/18 06:08:44;;;;;;;8.40;3.60;;;21.10;54.90;;;;;;5014642;28;20109;-63
2022/07/18 06:11:10;;;;;;;8.35;3.63;;;21.30;54.50;;;;;;5012877;28;20018;-64
2022/07/18 06:13:38;;;;;;;8.88;3.92;;;21.50;54.30;;;;;;5012817;28;20049;-64
2022/07/18 06:16:05;;;;;;;9.77;3.75;;;21.60;53.90;;;;;;5013845;28;20107;-64
2022/07/18 06:18:30;;;;;;;10.18;4.05;;;21.80;53.70;;;;;;5014731;28;20033;-64
2022/07/18 06:20:56;;;;;;;10.55;4.00;;;21.90;53.50;;;;;;5015153;28;20030;-64
2022/07/18 06:23:22;;;;;;;11.20;4.78;;;22.10;53.20;;;;;;5014919;28;20428;-64
2022/07/18 06:25:47;;;;;;;11.98;4.40;;;22.20;52.90;;;;;;5015350;28;20080;-64
2022/07/18 06:28:13;;;;;;;8.98;3.88;;;22.40;52.40;;;;;;5014855;28;20037;-64
2022/07/18 06:30:39;;;;;;;10.18;4.18;;;22.50;51.90;;;;;;5013972;28;20053;-64
2022/07/18 06:33:07;;;;;;;9.05;3.33;;;22.50;51.50;;;;;;5015445;28;20030;-64
2022/07/18 06:35:33;;;;;;;11.02;3.95;;;22.70;51.40;;;;;;5015310;28;20109;-65
2022/07/18 06:37:59;;;;;;;8.32;3.53;;;22.80;51.20;;;;;;5014321;28;20070;-64
2022/07/18 06:40:25;;;;;;;7.63;3.28;;;23.00;50.80;;;;;;5014837;28;20080;-64
2022/07/18 06:42:53;;;;;;;8.15;3.28;;;23.10;50.20;;;;;;5015085;28;20037;-64
2022/07/18 06:45:19;;;;;;;8.13;3.88;;;23.30;49.60;;;;;;5015003;28;20527;-64
2022/07/18 06:47:45;;;;;;;10.27;3.72;;;23.50;49.30;;;;;;5014407;28;20125;-64
2022/07/18 06:50:12;;;;;;;6.63;3.13;;;23.70;48.90;;;;;;5014850;28;20030;-64
2022/07/18 06:52:43;;;;;;;8.07;3.15;;;23.90;48.60;;;;;;5018010;28;20499;-64
2022/07/18 06:55:10;;;;;;;7.75;3.25;;;24.00;48.00;;;;;;5014843;28;20049;-65
2022/07/18 06:57:36;;;;;;;7.43;3.17;;;24.20;47.60;;;;;;5013941;28;20041;-64
2022/07/18 07:00:03;;;;;;;7.35;3.38;;;24.30;47.20;;;;;;5014354;28;20113;-64
2022/07/18 07:02:28;;;;;;;6.80;2.70;;;24.40;47.00;;;;;;5014804;28;20072;-64
2022/07/18 07:04:54;;;;;;;7.65;2.85;;;24.50;46.90;;;;;;5012733;28;20455;-65
2022/07/18 07:07:19;;;;;;;8.80;3.45;;;24.60;47.00;;;;;;5014316;28;20041;-65
2022/07/18 07:09:45;;;;;;;6.32;2.72;;;24.80;46.70;;;;;;5014258;28;20288;-65
2022/07/18 07:12:11;;;;;;;7.95;3.15;;;24.90;46.50;;;;;;5018223;28;20450;-65
2022/07/18 07:14:37;;;;;;;11.48;3.45;;;25.00;46.30;;;;;;5018124;28;20152;-65
2022/07/18 07:17:03;;;;;;;9.35;3.30;;;25.10;46.10;;;;;;5017642;28;20052;-65
2022/07/18 07:19:29;;;;;;;8.90;3.53;;;25.20;46.00;;;;;;5019927;28;20026;-65
2022/07/18 07:21:55;;;;;;;8.13;3.38;;;25.30;45.90;;;;;;5017613;28;20084;-65
2022/07/18 07:24:21;;;;;;;6.68;3.20;;;25.40;45.90;;;;;;5015906;28;20041;-65
2022/07/18 07:26:46;;;;;;;6.97;2.92;;;25.60;45.90;;;;;;5018282;28;20100;-65
2022/07/18 07:29:12;;;;;;;6.97;2.88;;;25.80;45.70;;;;;;5017251;28;20060;-65
2022/07/18 07:31:38;;;;;;;9.60;2.92;;;26.00;45.50;;;;;;5016798;28;20017;-65
2022/07/18 07:34:04;;;;;;;6.20;2.50;;;26.00;45.40;;;;;;5017770;28;20451;-65
2022/07/18 07:36:29;;;;;;;5.90;2.47;;;26.20;45.40;;;;;;5016968;28;20022;-65
2022/07/18 07:38:56;;;;;;;6.55;2.35;;;26.30;45.20;;;;;;5017289;28;20466;-66
2022/07/18 07:41:22;;;;;;;4.97;2.25;;;26.40;45.10;;;;;;5017762;28;20141;-65
2022/07/18 07:43:48;;;;;;;6.20;2.38;;;26.60;44.80;;;;;;5017258;28;20084;-66
2022/07/18 07:46:13;;;;;;;5.78;2.20;;;26.80;44.70;;;;;;5017701;28;20026;-66
2022/07/18 07:48:39;;;;;;;5.97;2.47;;;27.00;44.40;;;;;;5017220;28;20045;-66
2022/07/18 07:51:05;;;;;;;7.30;2.38;;;27.10;44.10;;;;;;5018458;28;20100;-66
2022/07/18 07:53:31;;;;;;;6.03;2.22;;;27.30;44.10;;;;;;5016209;28;20037;-66
2022/07/18 07:55:57;;;;;;;11.05;2.17;;;27.40;43.70;;;;;;5014499;28;20026;-66
2022/07/18 07:58:23;;;;;;;7.00;2.13;;;27.50;43.40;;;;;;5022063;28;20030;-66
2022/07/18 08:00:48;;;;;;;7.45;2.10;;;27.70;43.10;;;;;;5011586;28;20608;-66
2022/07/18 08:03:14;;;;;;;7.35;1.92;;;27.80;42.80;;;;;;5017006;28;20478;-66
2022/07/18 08:05:48;;;;;;;6.53;2.08;;;28.00;42.50;;;;;;5015428;28;20053;-66
2022/07/18 08:08:14;;;;;;;5.75;1.90;;;28.10;42.00;;;;;;5016944;28;20177;-66
2022/07/18 08:10:41;;;;;;;3.92;1.48;;;28.20;41.70;;;;;;5015547;28;20037;-66
2022/07/18 08:13:07;;;;;;;6.25;1.90;;;28.30;41.20;;;;;;5016699;28;20088;-66
2022/07/18 08:15:33;;;;;;;5.25;1.80;;;28.20;41.10;;;;;;5013731;28;20117;-66
2022/07/18 08:17:58;;;;;;;4.55;1.58;;;28.30;41.10;;;;;;5018320;28;20250;-66
2022/07/18 08:20:24;;;;;;;5.32;1.60;;;28.40;41.10;;;;;;5010525;28;20422;-66
2022/07/18 08:23:11;;;;;;;4.05;1.65;;;28.60;40.80;;;;;;5009449;28;20117;-66
2022/07/18 08:25:39;;;;;;;3.97;1.63;;;28.70;40.60;;;;;;5013002;28;20037;-67
2022/07/18 08:28:05;;;;;;;4.68;1.63;;;28.90;40.40;;;;;;5012747;28;20447;-66
2022/07/18 08:30:32;;;;;;;4.25;1.60;;;28.90;40.20;;;;;;5009152;28;20030;-66
2022/07/18 08:32:58;;;;;;;5.97;1.77;;;29.10;40.20;;;;;;5009538;28;20052;-66
2022/07/18 08:35:24;;;;;;;4.97;1.80;;;29.20;40.30;;;;;;5009069;28;20109;-67
2022/07/18 08:37:50;;;;;;;3.55;1.50;;;29.30;40.20;;;;;;4999939;28;21029;-66
2022/07/18 08:40:16;;;;;;;6.55;1.80;;;29.40;40.10;;;;;;5010069;28;20216;-67
2022/07/18 08:42:42;;;;;;;4.13;1.60;;;29.40;40.00;;;;;;5008997;28;20112;-66
2022/07/18 08:45:08;;;;;;;5.28;1.90;;;29.40;40.10;;;;;;5012570;28;20125;-66
2022/07/18 08:47:34;;;;;;;4.38;1.77;;;29.50;39.90;;;;;;5008609;28;20033;-66
2022/07/18 08:50:01;;;;;;;5.68;1.90;;;29.70;39.70;;;;;;5012934;28;20347;-66
2022/07/18 08:52:28;;;;;;;4.57;1.55;;;29.70;39.20;;;;;;5008700;28;20033;-66
2022/07/18 08:54:55;;;;;;;5.63;1.52;;;29.80;39.30;;;;;;5013237;28;20029;-65
2022/07/18 08:57:22;;;;;;;4.18;1.52;;;30.00;38.90;;;;;;5010095;28;20034;-65
2022/07/18 08:59:48;;;;;;;4.80;1.52;;;30.00;38.40;;;;;;5008635;28;20022;-65
2022/07/18 09:02:13;;;;;;;4.07;1.70;;;30.10;38.40;;;;;;5008566;28;20075;-65
2022/07/18 09:04:41;;;;;;;5.35;1.83;;;30.30;38.80;;;;;;5013292;28;20034;-65
2022/07/18 09:07:08;;;;;;;3.85;1.42;;;30.30;38.60;;;;;;5000937;28;20056;-65
2022/07/18 09:09:35;;;;;;;3.67;1.40;;;30.50;38.40;;;;;;5013574;28;20038;-66
2022/07/18 09:12:06;;;;;;;4.72;1.83;;;30.60;38.30;;;;;;5009891;28;20032;-66
2022/07/18 09:14:39;;;;;;;;;;;30.70;37.90;;;;;;5010567;28;20506;-66
2022/07/18 09:17:23;;;;;;;4.28;1.48;;;30.80;38.00;;;;;;5011675;28;20342;-66
2022/07/18 09:20:16;;;;;;;3.92;1.55;;;30.80;37.10;;;;;;5013320;28;20045;-66
2022/07/18 09:22:43;;;;;;;3.88;1.65;;;30.80;36.60;;;;;;5010640;28;20095;-66
2022/07/18 09:25:09;;;;;;;3.42;1.42;;;30.90;36.70;;;;;;5010702;28;20033;-66
2022/07/18 09:27:40;;;;;;;3.30;1.30;;;31.10;36.60;;;;;;5016240;28;20041;-66
2022/07/18 09:30:17;;;;;;;;;;;31.30;36.00;;;;;;5006854;28;20025;-66
2022/07/18 09:32:53;;;;;;;2.22;1.23;;;31.30;36.20;;;;;;5006997;28;19920;-66
2022/07/18 09:35:26;;;;;;;5.53;1.65;;;31.40;35.90;;;;;;5006589;28;20084;-66
2022/07/18 09:38:00;;;;;;;5.53;1.40;;;31.60;35.90;;;;;;5004909;28;20026;-65
2022/07/18 09:40:32;;;;;;;7.40;1.95;;;31.60;35.40;;;;;;5002706;28;20033;-66
2022/07/18 09:43:01;;;;;;;3.78;1.55;;;31.70;35.10;;;;;;5009923;28;20078;-66
2022/07/18 09:45:37;;;;;;;4.07;1.40;;;31.80;34.90;;;;;;5010741;28;20029;-65
2022/07/18 09:48:07;;;;;;;7.60;1.67;;;31.90;34.70;;;;;;5006599;28;20030;-65
2022/07/18 09:50:34;;;;;;;5.30;1.88;;;31.90;35.40;;;;;;5010031;28;20046;-66
2022/07/18 09:53:15;;;;;;;3.78;1.30;;;31.90;34.40;;;;;;5010368;28;20076;-66
2022/07/18 09:55:52;;;;;;;4.80;1.40;;;32.00;34.20;;;;;;5006581;28;20363;-66
2022/07/18 09:58:28;;;;;;;4.35;1.80;;;32.00;34.00;;;;;;5009611;28;20034;-66
2022/07/18 10:00:56;;;;;;;9.43;1.60;;;31.80;34.00;;;;;;5006669;28;20080;-66
2022/07/18 10:03:22;;;;;;;3.72;1.45;;;31.70;34.20;;;;;;5004911;28;20079;-66
2022/07/18 10:05:50;;;;;;;4.63;1.58;;;31.50;34.40;;;;;;5007504;28;20029;-66
2022/07/18 10:08:20;;;;;;;4.18;1.42;;;31.30;34.50;;;;;;5010268;28;20053;-66
2022/07/18 10:10:47;;;;;;;;;;;31.00;34.50;;;;;;5009267;28;20094;-65
2022/07/18 10:13:14;;;;;;;4.28;1.48;;;30.70;35.00;;;;;;5012159;28;19917;-65
2022/07/18 10:15:42;;;;;;;5.00;1.45;;;30.50;35.30;;;;;;5007579;28;20034;-65
2022/07/18 10:18:11;;;;;;;4.25;1.40;;;30.20;35.50;;;;;;5006290;28;20032;-65
2022/07/18 10:20:41;;;;;;;4.72;1.77;;;29.90;36.10;;;;;;5000232;28;20038;-62
2022/07/18 10:23:18;;;;;;;6.72;1.90;;;29.70;36.10;;;;;;5016083;28;20041;-62
2022/07/18 10:26:04;;;;;;;5.45;1.75;;;29.70;36.10;;;;;;5005480;28;20117;-62
2022/07/18 10:28:29;;;;;;;5.28;1.67;;;29.90;36.10;;;;;;5010645;28;20509;-61
2022/07/18 10:31:14;;;;;;;3.28;1.83;;;30.00;36.00;;;;;;5008530;28;20026;-63
2022/07/18 10:33:47;;;;;;;4.63;1.85;;;30.20;36.00;;;;;;5006303;28;20105;-62
2022/07/18 10:36:15;;;;;;;3.80;1.58;;;30.50;36.10;;;;;;5008016;28;20211;-62
2022/07/18 10:39:02;;;;;;;4.18;1.50;;;30.80;35.80;;;;;;5006151;28;20044;-62
2022/07/18 10:41:28;;;;;;;6.78;1.63;;;31.10;35.30;;;;;;5008693;28;20026;-62
2022/07/18 10:43:54;;;;;;;2.88;1.33;;;31.30;35.10;;;;;;5009018;28;20041;-62
2022/07/18 10:46:20;;;;;;;4.32;1.40;;;31.50;34.90;;;;;;5008224;28;20367;-62
2022/07/18 10:48:51;;;;;;;1.95;1.15;;;31.80;34.40;;;;;;5002985;28;20038;-62
2022/07/18 10:51:18;;;;;;;2.75;1.23;;;31.90;33.80;;;;;;5009253;28;20037;-62
2022/07/18 10:54:06;;;;;;;3.58;1.40;;;32.00;33.60;;;;;;5003619;28;20704;-62
2022/07/18 10:56:37;;;;;;;4.63;1.80;;;32.20;33.20;;;;;;5007690;28;20401;-62
2022/07/18 10:59:24;;;;;;;4.13;1.60;;;32.30;32.90;;;;;;5025852;28;20026;-62
2022/07/18 11:01:55;;;;;;;4.68;1.75;;;32.50;33.00;;;;;;5008295;28;20041;-62
2022/07/18 11:04:32;;;;;;;4.22;1.58;;;32.60;32.90;;;;;;5019975;28;20076;-61
2022/07/18 11:07:07;;;;;;;5.40;1.60;;;32.60;32.60;;;;;;5006947;28;20038;-61
2022/07/18 11:09:39;;;;;;;3.58;1.27;;;32.70;33.10;;;;;;5006324;28;20035;-61
2022/07/18 11:12:26;;;;;;;4.05;1.30;;;32.80;32.40;;;;;;5007684;28;20064;-61
2022/07/18 11:15:02;;;;;;;4.50;1.67;;;32.80;31.90;;;;;;5008401;28;20121;-62
2022/07/18 11:17:51;;;;;;;4.65;1.90;;;32.80;32.20;;;;;;5006648;28;20412;-62
2022/07/18 11:20:49;;;;;;;4.05;1.45;;;32.90;31.80;;;;;;5006246;28;20050;-62
2022/07/18 11:23:17;;;;;;;3.83;1.75;;;32.90;31.80;;;;;;5001611;28;20045;-63
2022/07/18 11:25:43;;;;;;;3.25;1.40;;;33.00;32.10;;;;;;5003821;28;20421;-61
2022/07/18 11:28:10;;;;;;;4.88;1.67;;;33.10;32.30;;;;;;5009371;28;20041;-61
2022/07/18 11:30:37;;;;;;;4.68;1.58;;;33.10;32.20;;;;;;5007719;28;20132;-61
2022/07/18 11:33:03;;;;;;;4.88;1.73;;;33.20;32.00;;;;;;5008939;28;20537;-60
2022/07/18 11:35:29;;;;;;;3.78;1.30;;;33.20;31.70;;;;;;5010200;28;20428;-61
2022/07/18 11:37:55;;;;;;;5.18;1.75;;;33.20;31.60;;;;;;5020421;28;20041;-60
2022/07/18 11:40:21;;;;;;;10.93;1.80;;;33.10;31.50;;;;;;5011851;28;20034;-61
2022/07/18 11:42:48;;;;;;;3.80;1.52;;;33.10;31.30;;;;;;5008176;28;20032;-61
2022/07/18 11:45:16;;;;;;;2.72;1.40;;;33.20;31.40;;;;;;5008941;28;20113;-61
2022/07/18 11:47:47;;;;;;;6.53;2.20;;;33.20;31.20;;;;;;5014041;28;20045;-62
2022/07/18 11:50:14;;;;;;;4.82;1.35;;;33.10;31.40;;;;;;5011299;28;20038;-61
2022/07/18 11:52:41;;;;;;;4.35;1.75;;;33.10;31.50;;;;;;5022476;28;20120;-61
2022/07/18 11:55:07;;;;;;;4.07;1.50;;;33.10;31.50;;;;;;5007500;28;20033;-61
2022/07/18 11:57:33;;;;;;;4.18;1.60;;;33.10;31.40;;;;;;5012272;28;20028;-62
2022/07/18 12:00:00;;;;;;;3.40;1.40;;;33.10;31.30;;;;;;5019282;28;20080;-62
2022/07/18 12:03:03;;;;;;;5.32;1.70;;;33.10;31.10;;;;;;5020210;28;20056;-61
2022/07/18 12:05:40;;;;;;;5.03;1.50;;;33.10;31.10;;;;;;5009401;28;20030;-62
2022/07/18 12:08:24;;;;;;;4.38;1.58;;;33.00;31.30;;;;;;5009201;28;20038;-62
2022/07/18 12:11:19;;;;;;;4.32;1.60;;;33.00;31.40;;;;;;5013520;28;20060;-62
2022/07/18 12:13:44;;;;;;;3.90;1.25;;;32.90;31.40;;;;;;5010364;28;20065;-63
2022/07/18 12:16:26;;;;;;;5.68;1.50;;;32.90;31.50;;;;;;5012768;28;20033;-62
2022/07/18 12:19:02;;;;;;;4.05;1.80;;;32.80;31.50;;;;;;5011009;28;20041;-62
2022/07/18 12:21:49;;;;;;;5.45;1.63;;;32.70;31.60;;;;;;5013040;28;20030;-63
2022/07/18 12:24:34;;;;;;;4.38;1.40;;;32.70;31.80;;;;;;5010177;28;20355;-63
2022/07/18 12:27:18;;;;;;;3.80;1.60;;;32.60;31.90;;;;;;5013149;28;20034;-62
2022/07/18 12:30:05;;;;;;;6.10;1.52;;;32.50;31.70;;;;;;5007530;28;20040;-62
2022/07/18 12:32:44;;;;;;;4.93;1.70;;;32.50;31.60;;;;;;5011606;28;20053;-62
2022/07/18 12:35:22;;;;;;;5.63;1.80;;;32.40;31.20;;;;;;5026382;28;20346;-62
2022/07/18 12:38:11;;;;;;;3.97;1.60;;;32.40;31.40;;;;;;5011369;28;20026;-62
2022/07/18 12:40:51;;;;;;;6.18;2.17;;;32.30;31.30;;;;;;5010530;28;20030;-63
2022/07/18 12:43:38;;;;;;;3.97;1.48;;;32.20;31.30;;;;;;5009478;28;20044;-62
2022/07/18 12:46:08;;;;;;;5.13;1.83;;;32.10;31.40;;;;;;5012452;28;20099;-63
2022/07/18 12:48:35;;;;;;;4.60;1.65;;;32.10;31.60;;;;;;5013361;28;20041;-63
2022/07/18 12:51:05;;;;;;;4.65;1.92;;;32.00;31.90;;;;;;5011365;28;20022;-63
2022/07/18 12:53:33;;;;;;;3.15;1.58;;;32.00;32.10;;;;;;5009926;28;20312;-61
2022/07/18 12:55:59;;;;;;;6.88;1.80;;;31.90;32.00;;;;;;5014969;28;20021;-62